sensor_id;sensor_type;location;lat;lon;timestamp;pressure;altitude;pressure_sealevel;temperature;humidity
51053;BME280;37093;37.716;-122.060;2023-07-16T00:02:20;99357.78;;;35.56;22.46
51053;BME280;37093;37.716;-122.060;2023-07-16T00:04:48;99362.81;;;35.09;22.98
51053;BME280;37093;37.716;-122.060;2023-07-16T00:07:17;99358.49;;;35.50;22.08
51053;BME280;37093;37.716;-122.060;2023-07-16T00:09:45;99355.55;;;35.05;22.22
51053;BME280;37093;37.716;-122.060;2023-07-16T00:12:14;99357.30;;;35.37;22.31
51053;BME280;37093;37.716;-122.060;2023-07-16T00:14:42;99358.84;;;35.16;22.81
51053;BME280;37093;37.716;-122.060;2023-07-16T00:17:11;99358.42;;;35.55;22.34
51053;BME280;37093;37.716;-122.060;2023-07-16T00:19:39;99359.20;;;35.46;21.57
51053;BME280;37093;37.716;-122.060;2023-07-16T00:22:08;99360.19;;;35.26;22.58
51053;BME280;37093;37.716;-122.060;2023-07-16T00:24:36;99359.72;;;35.40;22.52
51053;BME280;37093;37.716;-122.060;2023-07-16T00:27:05;99359.47;;;35.25;23.16
51053;BME280;37093;37.716;-122.060;2023-07-16T00:29:33;99362.18;;;35.42;22.58
51053;BME280;37093;37.716;-122.060;2023-07-16T00:32:01;99356.10;;;35.42;22.28
51053;BME280;37093;37.716;-122.060;2023-07-16T00:34:30;99354.77;;;35.33;22.00
51053;BME280;37093;37.716;-122.060;2023-07-16T00:36:58;99352.84;;;35.18;22.68
51053;BME280;37093;37.716;-122.060;2023-07-16T00:39:27;99352.34;;;34.88;23.05
51053;BME280;37093;37.716;-122.060;2023-07-16T00:41:55;99348.89;;;34.67;23.04
51053;BME280;37093;37.716;-122.060;2023-07-16T00:44:24;99347.12;;;34.66;22.79
51053;BME280;37093;37.716;-122.060;2023-07-16T00:46:52;99351.23;;;34.50;22.91
51053;BME280;37093;37.716;-122.060;2023-07-16T00:49:21;99345.71;;;35.01;22.35
51053;BME280;37093;37.716;-122.060;2023-07-16T00:51:50;99346.94;;;34.83;22.81
51053;BME280;37093;37.716;-122.060;2023-07-16T00:54:20;99344.65;;;33.88;23.19
51053;BME280;37093;37.716;-122.060;2023-07-16T00:56:49;99341.95;;;34.09;23.03
51053;BME280;37093;37.716;-122.060;2023-07-16T00:59:17;99337.80;;;34.42;23.02
51053;BME280;37093;37.716;-122.060;2023-07-16T01:01:45;99333.39;;;33.96;23.17
51053;BME280;37093;37.716;-122.060;2023-07-16T01:04:14;99337.18;;;34.16;22.87
51053;BME280;37093;37.716;-122.060;2023-07-16T01:06:46;99329.98;;;33.64;23.96
51053;BME280;37093;37.716;-122.060;2023-07-16T01:09:17;99333.75;;;33.43;23.99
51053;BME280;37093;37.716;-122.060;2023-07-16T01:11:46;99329.21;;;33.71;23.51
51053;BME280;37093;37.716;-122.060;2023-07-16T01:14:17;99333.07;;;33.64;24.04
51053;BME280;37093;37.716;-122.060;2023-07-16T01:16:46;99332.02;;;33.82;23.69
51053;BME280;37093;37.716;-122.060;2023-07-16T01:19:15;99329.05;;;34.10;23.44
51053;BME280;37093;37.716;-122.060;2023-07-16T01:21:51;99334.53;;;34.08;23.61
51053;BME280;37093;37.716;-122.060;2023-07-16T01:24:44;99332.70;;;34.17;23.73
51053;BME280;37093;37.716;-122.060;2023-07-16T01:27:34;99333.27;;;33.77;23.71
51053;BME280;37093;37.716;-122.060;2023-07-16T01:30:09;99330.48;;;34.00;23.79
51053;BME280;37093;37.716;-122.060;2023-07-16T01:32:40;99328.27;;;33.65;23.96
51053;BME280;37093;37.716;-122.060;2023-07-16T01:35:10;99330.47;;;33.89;23.44
51053;BME280;37093;37.716;-122.060;2023-07-16T01:37:39;99327.01;;;33.66;23.50
51053;BME280;37093;37.716;-122.060;2023-07-16T01:40:09;99333.69;;;32.78;24.53
51053;BME280;37093;37.716;-122.060;2023-07-16T01:42:37;99324.98;;;33.51;24.19
51053;BME280;37093;37.716;-122.060;2023-07-16T01:45:07;99322.60;;;33.00;24.36
51053;BME280;37093;37.716;-122.060;2023-07-16T01:47:43;99324.53;;;32.87;24.43
51053;BME280;37093;37.716;-122.060;2023-07-16T01:50:13;99319.94;;;32.64;24.83
51053;BME280;37093;37.716;-122.060;2023-07-16T01:52:41;99320.17;;;33.17;24.62
51053;BME280;37093;37.716;-122.060;2023-07-16T01:55:10;99319.37;;;32.90;24.86
51053;BME280;37093;37.716;-122.060;2023-07-16T01:57:38;99325.07;;;33.08;24.96
51053;BME280;37093;37.716;-122.060;2023-07-16T02:00:08;99324.23;;;32.10;25.58
51053;BME280;37093;37.716;-122.060;2023-07-16T02:02:36;99324.49;;;33.16;24.71
51053;BME280;37093;37.716;-122.060;2023-07-16T02:05:05;99325.78;;;32.86;24.87
51053;BME280;37093;37.716;-122.060;2023-07-16T02:07:34;99324.72;;;32.98;24.96
51053;BME280;37093;37.716;-122.060;2023-07-16T02:10:02;99324.83;;;31.78;26.12
51053;BME280;37093;37.716;-122.060;2023-07-16T02:12:31;99325.06;;;32.70;25.07
51053;BME280;37093;37.716;-122.060;2023-07-16T02:15:00;99329.23;;;32.38;25.24
51053;BME280;37093;37.716;-122.060;2023-07-16T02:17:29;99329.39;;;32.78;24.98
51053;BME280;37093;37.716;-122.060;2023-07-16T02:19:57;99332.57;;;32.54;25.36
51053;BME280;37093;37.716;-122.060;2023-07-16T02:22:26;99335.33;;;32.94;24.92
51053;BME280;37093;37.716;-122.060;2023-07-16T02:24:54;99334.15;;;32.44;25.51
51053;BME280;37093;37.716;-122.060;2023-07-16T02:27:24;99334.04;;;32.73;25.39
51053;BME280;37093;37.716;-122.060;2023-07-16T02:29:52;99334.07;;;32.55;25.58
51053;BME280;37093;37.716;-122.060;2023-07-16T02:32:21;99334.16;;;32.36;25.43
51053;BME280;37093;37.716;-122.060;2023-07-16T02:34:50;99331.74;;;32.22;25.70
51053;BME280;37093;37.716;-122.060;2023-07-16T02:37:18;99327.49;;;32.22;25.60
51053;BME280;37093;37.716;-122.060;2023-07-16T02:39:46;99328.24;;;32.52;25.80
51053;BME280;37093;37.716;-122.060;2023-07-16T02:42:15;99331.30;;;32.66;25.28
51053;BME280;37093;37.716;-122.060;2023-07-16T02:44:43;99334.12;;;32.10;25.96
51053;BME280;37093;37.716;-122.060;2023-07-16T02:47:12;99334.59;;;32.33;25.81
51053;BME280;37093;37.716;-122.060;2023-07-16T02:49:40;99335.12;;;32.30;25.34
51053;BME280;37093;37.716;-122.060;2023-07-16T02:52:09;99335.62;;;32.22;25.42
51053;BME280;37093;37.716;-122.060;2023-07-16T02:54:38;99336.48;;;32.27;25.57
51053;BME280;37093;37.716;-122.060;2023-07-16T02:57:06;99337.21;;;32.07;25.91
51053;BME280;37093;37.716;-122.060;2023-07-16T02:59:34;99338.54;;;31.95;26.43
51053;BME280;37093;37.716;-122.060;2023-07-16T03:02:03;99337.86;;;31.57;26.86
51053;BME280;37093;37.716;-122.060;2023-07-16T03:04:31;99338.59;;;31.55;26.27
51053;BME280;37093;37.716;-122.060;2023-07-16T03:07:00;99338.67;;;31.67;26.07
51053;BME280;37093;37.716;-122.060;2023-07-16T03:09:28;99339.27;;;31.88;26.36
51053;BME280;37093;37.716;-122.060;2023-07-16T03:11:57;99339.68;;;31.28;26.91
51053;BME280;37093;37.716;-122.060;2023-07-16T03:14:25;99342.25;;;31.38;27.07
51053;BME280;37093;37.716;-122.060;2023-07-16T03:16:54;99335.92;;;31.04;27.27
51053;BME280;37093;37.716;-122.060;2023-07-16T03:19:22;99340.82;;;31.23;27.60
51053;BME280;37093;37.716;-122.060;2023-07-16T03:21:51;99342.63;;;31.09;27.84
51053;BME280;37093;37.716;-122.060;2023-07-16T03:24:19;99345.84;;;30.87;28.09
51053;BME280;37093;37.716;-122.060;2023-07-16T03:26:47;99349.05;;;30.74;28.04
51053;BME280;37093;37.716;-122.060;2023-07-16T03:29:16;99352.11;;;31.18;28.13
51053;BME280;37093;37.716;-122.060;2023-07-16T03:31:44;99351.70;;;30.70;28.27
51053;BME280;37093;37.716;-122.060;2023-07-16T03:34:12;99349.23;;;30.57;28.31
51053;BME280;37093;37.716;-122.060;2023-07-16T03:36:42;99350.75;;;30.61;28.35
51053;BME280;37093;37.716;-122.060;2023-07-16T03:39:10;99346.95;;;30.52;28.66
51053;BME280;37093;37.716;-122.060;2023-07-16T03:41:38;99346.46;;;30.38;28.61
51053;BME280;37093;37.716;-122.060;2023-07-16T03:44:07;99350.88;;;30.33;28.88
51053;BME280;37093;37.716;-122.060;2023-07-16T03:46:35;99350.75;;;30.03;28.89
51053;BME280;37093;37.716;-122.060;2023-07-16T03:49:07;99352.54;;;30.02;28.93
51053;BME280;37093;37.716;-122.060;2023-07-16T03:51:35;99350.22;;;30.32;28.98
51053;BME280;37093;37.716;-122.060;2023-07-16T03:54:04;99351.04;;;30.16;29.08
51053;BME280;37093;37.716;-122.060;2023-07-16T03:56:32;99347.27;;;30.07;29.44
51053;BME280;37093;37.716;-122.060;2023-07-16T03:59:01;99345.11;;;29.77;29.28
51053;BME280;37093;37.716;-122.060;2023-07-16T04:01:29;99349.41;;;29.95;29.15
51053;BME280;37093;37.716;-122.060;2023-07-16T04:03:58;99351.20;;;29.66;29.17
51053;BME280;37093;37.716;-122.060;2023-07-16T04:06:26;99350.05;;;29.82;29.26
51053;BME280;37093;37.716;-122.060;2023-07-16T04:08:54;99348.36;;;29.74;29.18
51053;BME280;37093;37.716;-122.060;2023-07-16T04:11:23;99352.68;;;29.58;29.56
51053;BME280;37093;37.716;-122.060;2023-07-16T04:13:51;99353.94;;;29.78;29.58
51053;BME280;37093;37.716;-122.060;2023-07-16T04:16:20;99355.11;;;29.47;29.67
51053;BME280;37093;37.716;-122.060;2023-07-16T04:18:48;99354.52;;;29.26;30.00
51053;BME280;37093;37.716;-122.060;2023-07-16T04:21:16;99356.50;;;29.28;29.73
51053;BME280;37093;37.716;-122.060;2023-07-16T04:23:45;99361.33;;;29.39;30.22
51053;BME280;37093;37.716;-122.060;2023-07-16T04:26:13;99363.47;;;29.05;30.39
51053;BME280;37093;37.716;-122.060;2023-07-16T04:28:42;99368.83;;;29.17;30.53
51053;BME280;37093;37.716;-122.060;2023-07-16T04:31:10;99370.70;;;29.21;30.30
51053;BME280;37093;37.716;-122.060;2023-07-16T04:33:38;99374.76;;;28.88;30.70
51053;BME280;37093;37.716;-122.060;2023-07-16T04:36:07;99381.79;;;29.15;30.68
51053;BME280;37093;37.716;-122.060;2023-07-16T04:38:35;99380.69;;;29.00;31.16
51053;BME280;37093;37.716;-122.060;2023-07-16T04:41:03;99381.10;;;28.89;31.34
51053;BME280;37093;37.716;-122.060;2023-07-16T04:43:32;99388.68;;;28.75;31.38
51053;BME280;37093;37.716;-122.060;2023-07-16T04:46:00;99393.32;;;28.57;31.76
51053;BME280;37093;37.716;-122.060;2023-07-16T04:48:28;99398.26;;;29.07;31.64
51053;BME280;37093;37.716;-122.060;2023-07-16T04:50:56;99396.55;;;28.56;32.15
51053;BME280;37093;37.716;-122.060;2023-07-16T04:53:25;99398.46;;;28.32;32.55
51053;BME280;37093;37.716;-122.060;2023-07-16T04:55:53;99400.36;;;28.46;32.80
51053;BME280;37093;37.716;-122.060;2023-07-16T04:58:22;99400.99;;;28.37;32.85
51053;BME280;37093;37.716;-122.060;2023-07-16T05:00:50;99404.79;;;28.16;32.79
51053;BME280;37093;37.716;-122.060;2023-07-16T05:03:18;99409.62;;;28.05;33.11
51053;BME280;37093;37.716;-122.060;2023-07-16T05:05:47;99411.46;;;28.21;32.79
51053;BME280;37093;37.716;-122.060;2023-07-16T05:08:15;99412.10;;;27.87;33.42
51053;BME280;37093;37.716;-122.060;2023-07-16T05:10:43;99413.17;;;27.65;33.78
51053;BME280;37093;37.716;-122.060;2023-07-16T05:13:12;99415.16;;;28.15;33.40
51053;BME280;37093;37.716;-122.060;2023-07-16T05:15:42;99414.06;;;27.53;33.76
51053;BME280;37093;37.716;-122.060;2023-07-16T05:18:11;99415.29;;;27.67;33.29
51053;BME280;37093;37.716;-122.060;2023-07-16T05:20:39;99410.86;;;27.59;33.04
51053;BME280;37093;37.716;-122.060;2023-07-16T05:23:09;99414.87;;;27.42;33.43
51053;BME280;37093;37.716;-122.060;2023-07-16T05:25:37;99416.13;;;27.27;33.65
51053;BME280;37093;37.716;-122.060;2023-07-16T05:28:06;99415.97;;;27.37;33.53
51053;BME280;37093;37.716;-122.060;2023-07-16T05:30:34;99416.21;;;27.21;33.77
51053;BME280;37093;37.716;-122.060;2023-07-16T05:33:02;99415.68;;;27.21;34.09
51053;BME280;37093;37.716;-122.060;2023-07-16T05:35:30;99418.36;;;26.87;34.02
51053;BME280;37093;37.716;-122.060;2023-07-16T05:37:58;99421.15;;;27.22;33.77
51053;BME280;37093;37.716;-122.060;2023-07-16T05:40:27;99420.15;;;26.84;33.95
51053;BME280;37093;37.716;-122.060;2023-07-16T05:42:56;99423.79;;;26.80;34.18
51053;BME280;37093;37.716;-122.060;2023-07-16T05:45:24;99425.22;;;26.86;34.31
51053;BME280;37093;37.716;-122.060;2023-07-16T05:47:52;99433.16;;;26.73;34.68
51053;BME280;37093;37.716;-122.060;2023-07-16T05:50:20;99432.25;;;26.47;35.08
51053;BME280;37093;37.716;-122.060;2023-07-16T05:52:48;99432.76;;;26.77;35.06
51053;BME280;37093;37.716;-122.060;2023-07-16T05:55:16;99434.96;;;26.46;35.17
51053;BME280;37093;37.716;-122.060;2023-07-16T05:57:44;99433.72;;;26.73;35.52
51053;BME280;37093;37.716;-122.060;2023-07-16T06:00:13;99432.70;;;26.18;35.36
51053;BME280;37093;37.716;-122.060;2023-07-16T06:02:41;99430.38;;;26.41;35.28
51053;BME280;37093;37.716;-122.060;2023-07-16T06:05:10;99429.09;;;26.27;35.38
51053;BME280;37093;37.716;-122.060;2023-07-16T06:07:38;99425.07;;;26.21;35.53
51053;BME280;37093;37.716;-122.060;2023-07-16T06:10:08;99427.16;;;25.83;35.63
51053;BME280;37093;37.716;-122.060;2023-07-16T06:12:36;99425.23;;;25.50;35.72
51053;BME280;37093;37.716;-122.060;2023-07-16T06:15:05;99425.37;;;26.07;35.04
51053;BME280;37093;37.716;-122.060;2023-07-16T06:17:33;99426.38;;;25.92;35.70
51053;BME280;37093;37.716;-122.060;2023-07-16T06:20:02;99424.56;;;25.81;35.46
51053;BME280;37093;37.716;-122.060;2023-07-16T06:22:31;99423.97;;;25.99;35.91
51053;BME280;37093;37.716;-122.060;2023-07-16T06:24:59;99422.06;;;25.78;35.64
51053;BME280;37093;37.716;-122.060;2023-07-16T06:27:28;99417.82;;;25.85;36.12
51053;BME280;37093;37.716;-122.060;2023-07-16T06:29:56;99417.77;;;26.02;36.22
51053;BME280;37093;37.716;-122.060;2023-07-16T06:32:24;99415.06;;;25.67;36.54
51053;BME280;37093;37.716;-122.060;2023-07-16T06:34:52;99417.44;;;25.82;36.58
51053;BME280;37093;37.716;-122.060;2023-07-16T06:37:20;99423.02;;;25.58;36.24
51053;BME280;37093;37.716;-122.060;2023-07-16T06:39:49;99419.85;;;25.39;36.46
51053;BME280;37093;37.716;-122.060;2023-07-16T06:42:18;99418.50;;;25.65;36.43
51053;BME280;37093;37.716;-122.060;2023-07-16T06:44:46;99420.10;;;25.55;37.27
51053;BME280;37093;37.716;-122.060;2023-07-16T06:47:14;99425.11;;;24.82;38.08
51053;BME280;37093;37.716;-122.060;2023-07-16T06:49:43;99426.92;;;25.28;37.68
51053;BME280;37093;37.716;-122.060;2023-07-16T06:52:20;99429.83;;;25.15;37.72
51053;BME280;37093;37.716;-122.060;2023-07-16T06:54:48;99429.70;;;25.12;37.92
51053;BME280;37093;37.716;-122.060;2023-07-16T06:57:17;99432.15;;;25.10;37.95
51053;BME280;37093;37.716;-122.060;2023-07-16T06:59:45;99432.83;;;24.86;37.61
51053;BME280;37093;37.716;-122.060;2023-07-16T07:01:13;99435.58;;;24.14;37.64
51053;BME280;37093;37.716;-122.060;2023-07-16T07:03:42;99435.29;;;23.98;36.69
51053;BME280;37093;37.716;-122.060;2023-07-16T07:06:10;99431.56;;;25.88;34.96
51053;BME280;37093;37.716;-122.060;2023-07-16T07:08:39;99428.39;;;26.10;34.51
51053;BME280;37093;37.716;-122.060;2023-07-16T07:11:07;99426.73;;;25.83;35.40
51053;BME280;37093;37.716;-122.060;2023-07-16T07:13:36;99419.25;;;25.33;36.44
51053;BME280;37093;37.716;-122.060;2023-07-16T07:16:04;99417.84;;;25.30;37.09
51053;BME280;37093;37.716;-122.060;2023-07-16T07:18:32;99418.91;;;25.13;37.19
51053;BME280;37093;37.716;-122.060;2023-07-16T07:21:00;99413.89;;;25.14;37.14
51053;BME280;37093;37.716;-122.060;2023-07-16T07:23:29;99412.55;;;24.96;37.75
51053;BME280;37093;37.716;-122.060;2023-07-16T07:25:57;99409.39;;;25.00;37.37
51053;BME280;37093;37.716;-122.060;2023-07-16T07:28:26;99405.57;;;24.85;37.96
51053;BME280;37093;37.716;-122.060;2023-07-16T07:30:55;99406.65;;;24.80;37.63
51053;BME280;37093;37.716;-122.060;2023-07-16T07:33:23;99409.38;;;24.95;37.96
51053;BME280;37093;37.716;-122.060;2023-07-16T07:35:54;99416.18;;;24.72;38.33
51053;BME280;37093;37.716;-122.060;2023-07-16T07:38:22;99416.95;;;24.38;38.50
51053;BME280;37093;37.716;-122.060;2023-07-16T07:40:51;99415.85;;;24.52;38.61
51053;BME280;37093;37.716;-122.060;2023-07-16T07:43:19;99415.79;;;24.34;38.55
51053;BME280;37093;37.716;-122.060;2023-07-16T07:45:47;99415.48;;;24.34;38.48
51053;BME280;37093;37.716;-122.060;2023-07-16T07:48:16;99418.70;;;24.72;38.44
51053;BME280;37093;37.716;-122.060;2023-07-16T07:50:46;99419.48;;;24.51;38.25
51053;BME280;37093;37.716;-122.060;2023-07-16T07:53:15;99419.86;;;24.70;37.88
51053;BME280;37093;37.716;-122.060;2023-07-16T08:12:23;99417.44;;;24.20;40.17
51053;BME280;37093;37.716;-122.060;2023-07-16T08:14:50;99415.87;;;22.80;38.36
51053;BME280;37093;37.716;-122.060;2023-07-16T08:17:17;99412.60;;;23.44;37.04
51053;BME280;37093;37.716;-122.060;2023-07-16T08:19:46;99409.51;;;25.15;35.99
51053;BME280;37093;37.716;-122.060;2023-07-16T08:22:14;99405.40;;;24.69;36.94
51053;BME280;37093;37.716;-122.060;2023-07-16T08:24:43;99412.38;;;24.59;37.02
51053;BME280;37093;37.716;-122.060;2023-07-16T08:27:11;99414.74;;;24.64;37.86
51053;BME280;37093;37.716;-122.060;2023-07-16T08:29:39;99416.49;;;24.31;38.26
51053;BME280;37093;37.716;-122.060;2023-07-16T08:32:09;99415.47;;;24.32;38.11
51053;BME280;37093;37.716;-122.060;2023-07-16T08:34:36;99412.22;;;23.83;38.02
51053;BME280;37093;37.716;-122.060;2023-07-16T08:37:05;99410.64;;;24.20;38.32
51053;BME280;37093;37.716;-122.060;2023-07-16T08:39:34;99412.19;;;23.76;38.67
51053;BME280;37093;37.716;-122.060;2023-07-16T08:42:04;99408.04;;;24.02;38.46
51053;BME280;37093;37.716;-122.060;2023-07-16T08:44:32;99407.38;;;23.83;38.82
51053;BME280;37093;37.716;-122.060;2023-07-16T08:47:01;99410.63;;;23.87;39.01
51053;BME280;37093;37.716;-122.060;2023-07-16T08:49:30;99409.65;;;23.76;39.05
51053;BME280;37093;37.716;-122.060;2023-07-16T08:52:00;99408.77;;;24.06;38.86
51053;BME280;37093;37.716;-122.060;2023-07-16T08:54:29;99405.97;;;23.70;38.95
51053;BME280;37093;37.716;-122.060;2023-07-16T08:56:57;99402.58;;;23.76;38.78
51053;BME280;37093;37.716;-122.060;2023-07-16T08:59:27;99402.74;;;23.62;39.03
51053;BME280;37093;37.716;-122.060;2023-07-16T09:01:56;99402.00;;;23.52;39.39
51053;BME280;37093;37.716;-122.060;2023-07-16T09:04:24;99399.50;;;23.76;39.38
51053;BME280;37093;37.716;-122.060;2023-07-16T09:06:53;99398.25;;;23.55;38.86
51053;BME280;37093;37.716;-122.060;2023-07-16T09:09:22;99395.22;;;23.45;38.95
51053;BME280;37093;37.716;-122.060;2023-07-16T09:11:51;99394.05;;;23.50;39.26
51053;BME280;37093;37.716;-122.060;2023-07-16T09:14:20;99391.44;;;23.34;40.04
51053;BME280;37093;37.716;-122.060;2023-07-16T09:16:49;99390.69;;;23.86;39.53
51053;BME280;37093;37.716;-122.060;2023-07-16T09:19:18;99388.54;;;23.28;39.70
51053;BME280;37093;37.716;-122.060;2023-07-16T09:21:48;99389.08;;;23.29;39.25
51053;BME280;37093;37.716;-122.060;2023-07-16T09:24:18;99388.21;;;23.52;38.99
51053;BME280;37093;37.716;-122.060;2023-07-16T09:26:50;99390.56;;;23.60;38.89
51053;BME280;37093;37.716;-122.060;2023-07-16T09:29:19;99389.93;;;23.23;39.07
51053;BME280;37093;37.716;-122.060;2023-07-16T09:31:55;99388.21;;;23.49;39.19
51053;BME280;37093;37.716;-122.060;2023-07-16T09:34:27;99386.40;;;23.09;39.79
51053;BME280;37093;37.716;-122.060;2023-07-16T09:36:57;99385.96;;;23.39;39.33
51053;BME280;37093;37.716;-122.060;2023-07-16T09:39:26;99383.60;;;23.07;38.82
51053;BME280;37093;37.716;-122.060;2023-07-16T09:41:54;99380.68;;;23.28;39.94
51053;BME280;37093;37.716;-122.060;2023-07-16T09:44:23;99375.81;;;23.42;40.24
51053;BME280;37093;37.716;-122.060;2023-07-16T09:46:52;99377.29;;;22.98;40.03
51053;BME280;37093;37.716;-122.060;2023-07-16T09:49:21;99375.90;;;23.26;39.86
51053;BME280;37093;37.716;-122.060;2023-07-16T09:51:52;99374.89;;;23.29;40.04
51053;BME280;37093;37.716;-122.060;2023-07-16T09:54:25;99374.01;;;22.99;39.91
51053;BME280;37093;37.716;-122.060;2023-07-16T09:56:56;99371.40;;;23.27;40.02
51053;BME280;37093;37.716;-122.060;2023-07-16T09:59:27;99368.31;;;23.25;39.80
51053;BME280;37093;37.716;-122.060;2023-07-16T10:01:56;99364.26;;;23.26;42.57
51053;BME280;37093;37.716;-122.060;2023-07-16T10:04:25;99359.78;;;22.60;43.16
51053;BME280;37093;37.716;-122.060;2023-07-16T10:06:55;99359.12;;;23.04;40.06
51053;BME280;37093;37.716;-122.060;2023-07-16T10:09:40;99355.26;;;22.95;39.88
51053;BME280;37093;37.716;-122.060;2023-07-16T10:12:16;99355.51;;;22.96;40.15
51053;BME280;37093;37.716;-122.060;2023-07-16T10:14:46;99350.98;;;22.92;40.38
51053;BME280;37093;37.716;-122.060;2023-07-16T10:17:15;99352.92;;;22.94;40.61
51053;BME280;37093;37.716;-122.060;2023-07-16T10:19:55;99350.08;;;22.67;41.02
51053;BME280;37093;37.716;-122.060;2023-07-16T10:22:33;99349.11;;;22.72;40.46
51053;BME280;37093;37.716;-122.060;2023-07-16T10:25:03;99348.21;;;22.67;40.45
51053;BME280;37093;37.716;-122.060;2023-07-16T10:27:33;99346.03;;;22.76;41.82
51053;BME280;37093;37.716;-122.060;2023-07-16T10:30:03;99344.59;;;22.71;40.86
51053;BME280;37093;37.716;-122.060;2023-07-16T10:32:33;99342.61;;;22.71;40.64
51053;BME280;37093;37.716;-122.060;2023-07-16T10:35:02;99341.72;;;22.65;40.67
51053;BME280;37093;37.716;-122.060;2023-07-16T10:37:32;99342.94;;;22.61;41.05
51053;BME280;37093;37.716;-122.060;2023-07-16T10:40:01;99343.14;;;22.54;40.54
51053;BME280;37093;37.716;-122.060;2023-07-16T10:42:30;99341.51;;;22.52;40.39
51053;BME280;37093;37.716;-122.060;2023-07-16T10:45:00;99337.55;;;22.54;40.98
51053;BME280;37093;37.716;-122.060;2023-07-16T10:47:31;99335.18;;;22.50;41.14
51053;BME280;37093;37.716;-122.060;2023-07-16T10:50:00;99335.52;;;22.48;40.82
51053;BME280;37093;37.716;-122.060;2023-07-16T10:52:31;99342.29;;;22.40;40.89
51053;BME280;37093;37.716;-122.060;2023-07-16T10:55:00;99344.64;;;22.39;41.41
51053;BME280;37093;37.716;-122.060;2023-07-16T10:57:29;99349.40;;;22.31;42.74
51053;BME280;37093;37.716;-122.060;2023-07-16T10:59:58;99350.27;;;22.27;41.59
51053;BME280;37093;37.716;-122.060;2023-07-16T11:02:26;99351.30;;;22.36;41.74
51053;BME280;37093;37.716;-122.060;2023-07-16T11:04:55;99354.19;;;22.38;41.79
51053;BME280;37093;37.716;-122.060;2023-07-16T11:07:23;99354.95;;;22.34;42.02
51053;BME280;37093;37.716;-122.060;2023-07-16T11:09:53;99356.10;;;22.31;41.89
51053;BME280;37093;37.716;-122.060;2023-07-16T11:12:22;99354.00;;;22.23;41.77
51053;BME280;37093;37.716;-122.060;2023-07-16T11:14:52;99353.88;;;22.50;42.10
51053;BME280;37093;37.716;-122.060;2023-07-16T11:17:23;99353.31;;;22.15;42.33
51053;BME280;37093;37.716;-122.060;2023-07-16T11:19:53;99357.40;;;22.15;42.09
51053;BME280;37093;37.716;-122.060;2023-07-16T11:22:25;99357.94;;;22.14;42.19
51053;BME280;37093;37.716;-122.060;2023-07-16T11:24:54;99359.32;;;22.41;40.90
51053;BME280;37093;37.716;-122.060;2023-07-16T11:27:24;99362.00;;;22.08;41.88
51053;BME280;37093;37.716;-122.060;2023-07-16T11:29:54;99364.57;;;22.03;42.22
51053;BME280;37093;37.716;-122.060;2023-07-16T11:32:31;99366.74;;;21.95;41.92
51053;BME280;37093;37.716;-122.060;2023-07-16T11:35:02;99366.04;;;21.95;41.75
51053;BME280;37093;37.716;-122.060;2023-07-16T11:37:32;99368.46;;;21.92;41.56
51053;BME280;37093;37.716;-122.060;2023-07-16T11:40:02;99369.03;;;21.89;41.84
51053;BME280;37093;37.716;-122.060;2023-07-16T11:42:32;99360.30;;;22.32;42.20
51053;BME280;37093;37.716;-122.060;2023-07-16T11:45:02;99358.49;;;22.15;42.90
51053;BME280;37093;37.716;-122.060;2023-07-16T11:47:31;99355.55;;;21.88;42.31
51053;BME280;37093;37.716;-122.060;2023-07-16T11:49:59;99357.24;;;22.08;41.60
51053;BME280;37093;37.716;-122.060;2023-07-16T11:52:29;99360.09;;;22.06;42.12
51053;BME280;37093;37.716;-122.060;2023-07-16T11:54:59;99358.26;;;22.01;42.45
51053;BME280;37093;37.716;-122.060;2023-07-16T11:57:27;99354.29;;;22.05;42.69
51053;BME280;37093;37.716;-122.060;2023-07-16T11:59:56;99352.55;;;21.81;43.42
51053;BME280;37093;37.716;-122.060;2023-07-16T12:02:26;99348.10;;;21.50;44.43
51053;BME280;37093;37.716;-122.060;2023-07-16T12:04:54;99349.72;;;22.10;43.68
51053;BME280;37093;37.716;-122.060;2023-07-16T12:07:32;99349.71;;;21.59;44.28
51053;BME280;37093;37.716;-122.060;2023-07-16T12:10:00;99346.13;;;21.93;44.20
51053;BME280;37093;37.716;-122.060;2023-07-16T12:12:28;99345.56;;;21.84;44.62
51053;BME280;37093;37.716;-122.060;2023-07-16T12:14:57;99346.31;;;21.58;45.16
51053;BME280;37093;37.716;-122.060;2023-07-16T12:17:25;99345.97;;;21.65;45.26
51053;BME280;37093;37.716;-122.060;2023-07-16T12:19:54;99346.48;;;21.87;45.19
51053;BME280;37093;37.716;-122.060;2023-07-16T12:22:23;99346.38;;;21.92;45.00
51053;BME280;37093;37.716;-122.060;2023-07-16T12:24:52;99342.52;;;21.79;45.76
51053;BME280;37093;37.716;-122.060;2023-07-16T12:27:21;99343.30;;;21.61;44.96
51053;BME280;37093;37.716;-122.060;2023-07-16T12:29:50;99340.85;;;21.90;45.62
51053;BME280;37093;37.716;-122.060;2023-07-16T12:32:18;99335.16;;;21.60;45.41
51053;BME280;37093;37.716;-122.060;2023-07-16T12:34:46;99329.66;;;21.56;45.20
51053;BME280;37093;37.716;-122.060;2023-07-16T12:37:15;99324.74;;;21.55;45.38
51053;BME280;37093;37.716;-122.060;2023-07-16T12:39:43;99325.12;;;21.59;45.46
51053;BME280;37093;37.716;-122.060;2023-07-16T12:42:12;99326.64;;;21.76;45.21
51053;BME280;37093;37.716;-122.060;2023-07-16T12:44:40;99328.48;;;21.97;45.27
51053;BME280;37093;37.716;-122.060;2023-07-16T12:47:09;99331.09;;;21.67;45.10
51053;BME280;37093;37.716;-122.060;2023-07-16T12:49:38;99334.16;;;22.09;44.80
51053;BME280;37093;37.716;-122.060;2023-07-16T12:52:07;99332.82;;;22.04;44.97
51053;BME280;37093;37.716;-122.060;2023-07-16T12:54:35;99331.01;;;21.95;45.00
51053;BME280;37093;37.716;-122.060;2023-07-16T12:57:03;99331.02;;;21.85;46.27